sensor_id;sensor_type;location;lat;lon;timestamp;P1;durP1;ratioP1;P2;durP2;ratioP2
12437;SDS011;6283;51.330;12.374;2022-12-18T00:01:28;29.73;;;16.67;;
12437;SDS011;6283;51.330;12.374;2022-12-18T00:03:56;37.80;;;18.03;;
12437;SDS011;6283;51.330;12.374;2022-12-18T00:06:23;34.37;;;17.27;;
12437;SDS011;6283;51.330;12.374;2022-12-18T00:08:50;30.63;;;17.87;;
12437;SDS011;6283;51.330;12.374;2022-12-18T00:11:18;35.47;;;16.30;;
12437;SDS011;6283;51.330;12.374;2022-12-18T00:13:46;40.53;;;18.93;;
12437;SDS011;6283;51.330;12.374;2022-12-18T00:16:12;39.27;;;19.57;;
12437;SDS011;6283;51.330;12.374;2022-12-18T00:18:40;31.90;;;16.87;;
12437;SDS011;6283;51.330;12.374;2022-12-18T00:21:07;31.47;;;16.70;;
12437;SDS011;6283;51.330;12.374;2022-12-18T00:23:35;39.00;;;18.50;;
12437;SDS011;6283;51.330;12.374;2022-12-18T00:26:02;36.77;;;17.33;;
12437;SDS011;6283;51.330;12.374;2022-12-18T00:28:29;34.97;;;17.80;;
12437;SDS011;6283;51.330;12.374;2022-12-18T00:31:01;32.33;;;16.80;;
12437;SDS011;6283;51.330;12.374;2022-12-18T00:33:32;28.27;;;15.40;;
12437;SDS011;6283;51.330;12.374;2022-12-18T00:36:09;33.03;;;16.83;;
12437;SDS011;6283;51.330;12.374;2022-12-18T00:38:36;33.47;;;17.30;;
12437;SDS011;6283;51.330;12.374;2022-12-18T00:41:03;31.00;;;15.70;;
12437;SDS011;6283;51.330;12.374;2022-12-18T00:43:29;34.30;;;17.03;;
12437;SDS011;6283;51.330;12.374;2022-12-18T00:45:55;32.23;;;15.60;;
12437;SDS011;6283;51.330;12.374;2022-12-18T00:48:21;28.10;;;15.63;;
12437;SDS011;6283;51.330;12.374;2022-12-18T00:50:49;30.70;;;16.00;;
12437;SDS011;6283;51.330;12.374;2022-12-18T00:53:15;38.63;;;17.23;;
12437;SDS011;6283;51.330;12.374;2022-12-18T00:55:41;37.47;;;17.10;;
12437;SDS011;6283;51.330;12.374;2022-12-18T00:58:09;32.63;;;16.30;;
12437;SDS011;6283;51.330;12.374;2022-12-18T01:00:35;34.90;;;16.20;;
12437;SDS011;6283;51.330;12.374;2022-12-18T01:03:01;33.13;;;16.50;;
12437;SDS011;6283;51.330;12.374;2022-12-18T01:05:27;29.47;;;15.73;;
12437;SDS011;6283;51.330;12.374;2022-12-18T01:07:53;34.67;;;17.37;;
12437;SDS011;6283;51.330;12.374;2022-12-18T01:10:19;36.50;;;17.50;;
12437;SDS011;6283;51.330;12.374;2022-12-18T01:12:45;39.67;;;17.10;;
12437;SDS011;6283;51.330;12.374;2022-12-18T01:15:11;32.33;;;16.40;;
12437;SDS011;6283;51.330;12.374;2022-12-18T01:17:38;31.13;;;15.30;;
12437;SDS011;6283;51.330;12.374;2022-12-18T01:20:04;37.13;;;17.00;;
12437;SDS011;6283;51.330;12.374;2022-12-18T01:22:30;33.07;;;16.10;;
12437;SDS011;6283;51.330;12.374;2022-12-18T01:24:56;37.60;;;16.47;;
12437;SDS011;6283;51.330;12.374;2022-12-18T01:27:21;35.60;;;16.47;;
12437;SDS011;6283;51.330;12.374;2022-12-18T01:29:47;29.17;;;14.73;;
12437;SDS011;6283;51.330;12.374;2022-12-18T01:32:13;30.70;;;16.07;;
12437;SDS011;6283;51.330;12.374;2022-12-18T01:34:39;33.13;;;16.37;;
12437;SDS011;6283;51.330;12.374;2022-12-18T01:37:05;31.73;;;15.63;;
12437;SDS011;6283;51.330;12.374;2022-12-18T01:39:30;26.57;;;14.73;;
12437;SDS011;6283;51.330;12.374;2022-12-18T01:42:00;31.73;;;16.10;;
12437;SDS011;6283;51.330;12.374;2022-12-18T01:47:19;31.37;;;15.40;;
12437;SDS011;6283;51.330;12.374;2022-12-18T01:49:48;38.33;;;16.67;;
12437;SDS011;6283;51.330;12.374;2022-12-18T01:52:14;36.67;;;16.80;;
12437;SDS011;6283;51.330;12.374;2022-12-18T01:54:40;30.10;;;15.63;;
12437;SDS011;6283;51.330;12.374;2022-12-18T01:57:06;35.73;;;15.57;;
12437;SDS011;6283;51.330;12.374;2022-12-18T01:59:32;39.30;;;16.50;;
12437;SDS011;6283;51.330;12.374;2022-12-18T02:01:59;27.77;;;14.40;;
12437;SDS011;6283;51.330;12.374;2022-12-18T02:04:25;32.27;;;15.13;;
12437;SDS011;6283;51.330;12.374;2022-12-18T02:06:57;25.00;;;14.20;;
12437;SDS011;6283;51.330;12.374;2022-12-18T02:09:48;28.87;;;14.90;;
12437;SDS011;6283;51.330;12.374;2022-12-18T02:12:23;34.77;;;15.93;;
12437;SDS011;6283;51.330;12.374;2022-12-18T02:14:58;26.77;;;14.80;;
12437;SDS011;6283;51.330;12.374;2022-12-18T02:17:36;27.13;;;13.50;;
12437;SDS011;6283;51.330;12.374;2022-12-18T02:27:59;25.37;;;13.73;;
12437;SDS011;6283;51.330;12.374;2022-12-18T02:30:29;31.83;;;14.63;;
12437;SDS011;6283;51.330;12.374;2022-12-18T02:32:58;30.57;;;14.93;;
12437;SDS011;6283;51.330;12.374;2022-12-18T02:35:26;25.53;;;14.20;;
12437;SDS011;6283;51.330;12.374;2022-12-18T02:37:55;23.63;;;13.30;;
12437;SDS011;6283;51.330;12.374;2022-12-18T02:40:22;27.97;;;13.50;;
12437;SDS011;6283;51.330;12.374;2022-12-18T02:42:49;29.20;;;12.93;;
12437;SDS011;6283;51.330;12.374;2022-12-18T02:45:15;25.50;;;12.30;;
12437;SDS011;6283;51.330;12.374;2022-12-18T02:47:42;28.13;;;13.37;;
12437;SDS011;6283;51.330;12.374;2022-12-18T02:52:45;23.00;;;12.37;;
12437;SDS011;6283;51.330;12.374;2022-12-18T02:55:28;26.47;;;12.77;;
12437;SDS011;6283;51.330;12.374;2022-12-18T03:03:41;25.50;;;12.47;;
12437;SDS011;6283;51.330;12.374;2022-12-18T03:06:21;28.13;;;12.60;;
12437;SDS011;6283;51.330;12.374;2022-12-18T03:08:54;20.50;;;12.43;;
12437;SDS011;6283;51.330;12.374;2022-12-18T03:11:24;23.07;;;12.77;;
12437;SDS011;6283;51.330;12.374;2022-12-18T03:14:12;21.43;;;11.57;;
12437;SDS011;6283;51.330;12.374;2022-12-18T03:16:41;30.67;;;12.83;;
12437;SDS011;6283;51.330;12.374;2022-12-18T03:19:11;20.87;;;12.07;;
12437;SDS011;6283;51.330;12.374;2022-12-18T03:21:45;24.00;;;12.07;;
12437;SDS011;6283;51.330;12.374;2022-12-18T03:24:14;26.70;;;13.00;;
12437;SDS011;6283;51.330;12.374;2022-12-18T03:26:42;24.97;;;12.47;;
12437;SDS011;6283;51.330;12.374;2022-12-18T03:29:12;22.27;;;11.23;;
12437;SDS011;6283;51.330;12.374;2022-12-18T03:31:45;20.60;;;11.90;;
12437;SDS011;6283;51.330;12.374;2022-12-18T03:34:29;23.53;;;10.80;;
12437;SDS011;6283;51.330;12.374;2022-12-18T03:36:57;22.27;;;12.43;;
12437;SDS011;6283;51.330;12.374;2022-12-18T03:39:23;20.47;;;11.47;;
12437;SDS011;6283;51.330;12.374;2022-12-18T03:44:27;20.67;;;11.37;;
12437;SDS011;6283;51.330;12.374;2022-12-18T03:52:20;21.90;;;10.77;;
12437;SDS011;6283;51.330;12.374;2022-12-18T03:54:48;24.97;;;11.50;;
12437;SDS011;6283;51.330;12.374;2022-12-18T03:57:16;21.90;;;10.70;;
12437;SDS011;6283;51.330;12.374;2022-12-18T03:59:47;21.57;;;11.13;;
12437;SDS011;6283;51.330;12.374;2022-12-18T04:02:17;19.27;;;10.77;;
12437;SDS011;6283;51.330;12.374;2022-12-18T04:04:43;19.33;;;10.67;;
12437;SDS011;6283;51.330;12.374;2022-12-18T04:07:11;20.63;;;11.53;;
12437;SDS011;6283;51.330;12.374;2022-12-18T04:09:39;22.17;;;10.80;;
12437;SDS011;6283;51.330;12.374;2022-12-18T04:12:07;20.70;;;9.97;;
12437;SDS011;6283;51.330;12.374;2022-12-18T04:14:33;21.37;;;11.27;;
12437;SDS011;6283;51.330;12.374;2022-12-18T04:17:00;18.83;;;10.37;;
12437;SDS011;6283;51.330;12.374;2022-12-18T04:19:27;20.80;;;11.20;;
12437;SDS011;6283;51.330;12.374;2022-12-18T04:21:52;18.93;;;11.53;;
12437;SDS011;6283;51.330;12.374;2022-12-18T04:24:18;17.57;;;9.10;;
12437;SDS011;6283;51.330;12.374;2022-12-18T04:26:44;20.83;;;10.63;;
12437;SDS011;6283;51.330;12.374;2022-12-18T04:29:09;21.17;;;10.80;;
12437;SDS011;6283;51.330;12.374;2022-12-18T04:31:35;15.87;;;9.37;;
12437;SDS011;6283;51.330;12.374;2022-12-18T04:34:01;18.23;;;9.40;;
12437;SDS011;6283;51.330;12.374;2022-12-18T04:36:26;23.73;;;10.63;;
12437;SDS011;6283;51.330;12.374;2022-12-18T04:38:52;19.73;;;10.50;;
12437;SDS011;6283;51.330;12.374;2022-12-18T04:41:18;17.87;;;9.63;;
12437;SDS011;6283;51.330;12.374;2022-12-18T04:43:43;17.93;;;10.53;;
12437;SDS011;6283;51.330;12.374;2022-12-18T04:46:09;21.00;;;9.37;;
12437;SDS011;6283;51.330;12.374;2022-12-18T04:48:35;15.03;;;8.37;;
12437;SDS011;6283;51.330;12.374;2022-12-18T04:51:01;14.67;;;8.80;;
12437;SDS011;6283;51.330;12.374;2022-12-18T04:53:27;18.73;;;9.90;;
12437;SDS011;6283;51.330;12.374;2022-12-18T04:56:03;14.87;;;9.37;;
12437;SDS011;6283;51.330;12.374;2022-12-18T04:58:28;13.70;;;7.97;;
12437;SDS011;6283;51.330;12.374;2022-12-18T05:00:54;15.10;;;9.10;;
12437;SDS011;6283;51.330;12.374;2022-12-18T05:03:20;17.93;;;9.30;;
12437;SDS011;6283;51.330;12.374;2022-12-18T05:05:48;15.40;;;8.87;;
12437;SDS011;6283;51.330;12.374;2022-12-18T05:08:15;14.83;;;8.40;;
12437;SDS011;6283;51.330;12.374;2022-12-18T05:10:41;16.47;;;9.13;;
12437;SDS011;6283;51.330;12.374;2022-12-18T05:13:06;15.77;;;8.50;;
12437;SDS011;6283;51.330;12.374;2022-12-18T05:15:32;14.73;;;8.23;;
12437;SDS011;6283;51.330;12.374;2022-12-18T05:17:59;16.30;;;8.60;;
12437;SDS011;6283;51.330;12.374;2022-12-18T05:20:25;14.70;;;8.23;;
12437;SDS011;6283;51.330;12.374;2022-12-18T05:22:51;12.73;;;7.63;;
12437;SDS011;6283;51.330;12.374;2022-12-18T05:25:18;12.63;;;7.47;;
12437;SDS011;6283;51.330;12.374;2022-12-18T05:27:44;14.87;;;7.83;;
12437;SDS011;6283;51.330;12.374;2022-12-18T05:30:10;16.43;;;8.03;;
12437;SDS011;6283;51.330;12.374;2022-12-18T05:32:36;16.07;;;8.20;;
12437;SDS011;6283;51.330;12.374;2022-12-18T05:35:03;10.47;;;6.80;;
12437;SDS011;6283;51.330;12.374;2022-12-18T05:37:30;14.03;;;7.97;;
12437;SDS011;6283;51.330;12.374;2022-12-18T05:39:56;15.43;;;7.60;;
12437;SDS011;6283;51.330;12.374;2022-12-18T05:42:21;16.37;;;7.53;;
12437;SDS011;6283;51.330;12.374;2022-12-18T05:44:47;11.37;;;6.93;;
12437;SDS011;6283;51.330;12.374;2022-12-18T05:47:12;10.80;;;6.63;;
12437;SDS011;6283;51.330;12.374;2022-12-18T05:49:39;11.80;;;7.47;;
12437;SDS011;6283;51.330;12.374;2022-12-18T05:52:04;12.37;;;7.33;;
12437;SDS011;6283;51.330;12.374;2022-12-18T05:54:30;14.53;;;7.30;;
12437;SDS011;6283;51.330;12.374;2022-12-18T05:56:56;11.47;;;6.43;;
12437;SDS011;6283;51.330;12.374;2022-12-18T05:59:22;13.63;;;6.50;;
12437;SDS011;6283;51.330;12.374;2022-12-18T06:01:48;12.13;;;7.37;;
12437;SDS011;6283;51.330;12.374;2022-12-18T06:04:13;12.40;;;7.07;;
12437;SDS011;6283;51.330;12.374;2022-12-18T06:06:39;14.27;;;7.53;;
12437;SDS011;6283;51.330;12.374;2022-12-18T06:09:05;14.57;;;8.07;;
12437;SDS011;6283;51.330;12.374;2022-12-18T06:11:37;14.50;;;7.67;;
12437;SDS011;6283;51.330;12.374;2022-12-18T06:14:04;11.63;;;6.73;;
12437;SDS011;6283;51.330;12.374;2022-12-18T06:16:31;11.43;;;6.73;;
12437;SDS011;6283;51.330;12.374;2022-12-18T06:19:00;15.30;;;7.83;;
12437;SDS011;6283;51.330;12.374;2022-12-18T06:21:28;11.80;;;7.73;;
12437;SDS011;6283;51.330;12.374;2022-12-18T06:23:54;14.33;;;7.47;;
12437;SDS011;6283;51.330;12.374;2022-12-18T06:26:20;12.90;;;7.40;;
12437;SDS011;6283;51.330;12.374;2022-12-18T06:28:46;12.33;;;7.63;;
12437;SDS011;6283;51.330;12.374;2022-12-18T06:31:11;14.10;;;7.37;;
12437;SDS011;6283;51.330;12.374;2022-12-18T06:33:38;13.87;;;7.40;;
12437;SDS011;6283;51.330;12.374;2022-12-18T06:36:05;13.67;;;7.10;;
12437;SDS011;6283;51.330;12.374;2022-12-18T06:38:33;15.77;;;8.03;;
12437;SDS011;6283;51.330;12.374;2022-12-18T06:40:59;12.77;;;7.30;;
12437;SDS011;6283;51.330;12.374;2022-12-18T06:43:25;13.50;;;7.63;;
12437;SDS011;6283;51.330;12.374;2022-12-18T06:45:50;16.07;;;7.87;;
12437;SDS011;6283;51.330;12.374;2022-12-18T06:48:17;13.13;;;7.83;;
12437;SDS011;6283;51.330;12.374;2022-12-18T06:50:44;11.33;;;7.60;;
12437;SDS011;6283;51.330;12.374;2022-12-18T06:53:10;15.90;;;7.80;;
12437;SDS011;6283;51.330;12.374;2022-12-18T06:55:36;18.07;;;8.27;;
12437;SDS011;6283;51.330;12.374;2022-12-18T06:58:01;16.83;;;7.60;;
12437;SDS011;6283;51.330;12.374;2022-12-18T07:00:27;12.67;;;7.50;;
12437;SDS011;6283;51.330;12.374;2022-12-18T07:02:52;13.87;;;8.20;;
12437;SDS011;6283;51.330;12.374;2022-12-18T07:05:18;13.97;;;7.20;;
12437;SDS011;6283;51.330;12.374;2022-12-18T07:07:43;15.73;;;8.63;;
12437;SDS011;6283;51.330;12.374;2022-12-18T07:10:09;17.33;;;9.00;;
12437;SDS011;6283;51.330;12.374;2022-12-18T07:12:35;13.97;;;8.50;;
12437;SDS011;6283;51.330;12.374;2022-12-18T07:15:00;13.23;;;7.80;;
12437;SDS011;6283;51.330;12.374;2022-12-18T07:17:26;14.00;;;8.07;;
12437;SDS011;6283;51.330;12.374;2022-12-18T07:19:52;17.60;;;8.37;;
12437;SDS011;6283;51.330;12.374;2022-12-18T07:22:17;13.53;;;7.97;;
12437;SDS011;6283;51.330;12.374;2022-12-18T07:24:43;16.57;;;7.80;;
12437;SDS011;6283;51.330;12.374;2022-12-18T07:27:09;14.50;;;8.20;;
12437;SDS011;6283;51.330;12.374;2022-12-18T07:29:34;16.87;;;7.97;;
12437;SDS011;6283;51.330;12.374;2022-12-18T07:32:00;13.17;;;7.07;;
12437;SDS011;6283;51.330;12.374;2022-12-18T07:34:25;12.83;;;7.17;;
12437;SDS011;6283;51.330;12.374;2022-12-18T07:36:51;12.70;;;7.40;;
12437;SDS011;6283;51.330;12.374;2022-12-18T07:39:16;11.60;;;6.80;;
12437;SDS011;6283;51.330;12.374;2022-12-18T07:41:42;11.33;;;7.17;;
12437;SDS011;6283;51.330;12.374;2022-12-18T07:44:11;11.83;;;6.33;;
12437;SDS011;6283;51.330;12.374;2022-12-18T07:46:37;11.63;;;7.57;;
12437;SDS011;6283;51.330;12.374;2022-12-18T07:49:03;10.87;;;6.67;;
12437;SDS011;6283;51.330;12.374;2022-12-18T07:51:29;12.03;;;6.23;;
12437;SDS011;6283;51.330;12.374;2022-12-18T07:53:54;12.67;;;6.90;;
12437;SDS011;6283;51.330;12.374;2022-12-18T07:56:21;14.70;;;8.23;;
12437;SDS011;6283;51.330;12.374;2022-12-18T07:58:47;13.17;;;7.03;;
12437;SDS011;6283;51.330;12.374;2022-12-18T08:01:12;9.47;;;5.83;;
12437;SDS011;6283;51.330;12.374;2022-12-18T08:03:39;10.33;;;7.00;;
12437;SDS011;6283;51.330;12.374;2022-12-18T08:06:06;11.10;;;6.33;;
12437;SDS011;6283;51.330;12.374;2022-12-18T08:08:33;13.00;;;6.90;;
12437;SDS011;6283;51.330;12.374;2022-12-18T08:11:00;9.50;;;6.67;;
12437;SDS011;6283;51.330;12.374;2022-12-18T08:13:26;12.70;;;6.50;;
12437;SDS011;6283;51.330;12.374;2022-12-18T08:18:44;11.33;;;6.20;;
12437;SDS011;6283;51.330;12.374;2022-12-18T08:21:11;10.17;;;6.03;;
12437;SDS011;6283;51.330;12.374;2022-12-18T08:23:41;11.30;;;6.80;;
12437;SDS011;6283;51.330;12.374;2022-12-18T08:26:07;9.27;;;5.80;;
12437;SDS011;6283;51.330;12.374;2022-12-18T08:28:34;12.43;;;5.63;;
12437;SDS011;6283;51.330;12.374;2022-12-18T08:30:59;9.77;;;6.37;;
12437;SDS011;6283;51.330;12.374;2022-12-18T08:33:25;11.27;;;6.23;;
12437;SDS011;6283;51.330;12.374;2022-12-18T08:35:52;9.23;;;5.67;;
12437;SDS011;6283;51.330;12.374;2022-12-18T08:38:18;8.83;;;5.90;;
12437;SDS011;6283;51.330;12.374;2022-12-18T08:40:43;12.77;;;7.27;;
12437;SDS011;6283;51.330;12.374;2022-12-18T08:43:10;11.80;;;6.10;;
12437;SDS011;6283;51.330;12.374;2022-12-18T08:45:54;12.23;;;6.33;;
12437;SDS011;6283;51.330;12.374;2022-12-18T08:48:20;13.20;;;6.27;;
12437;SDS011;6283;51.330;12.374;2022-12-18T08:50:56;9.17;;;5.93;;
12437;SDS011;6283;51.330;12.374;2022-12-18T08:53:23;9.23;;;5.53;;
12437;SDS011;6283;51.330;12.374;2022-12-18T08:55:49;10.90;;;6.23;;
12437;SDS011;6283;51.330;12.374;2022-12-18T08:58:15;10.33;;;5.73;;
12437;SDS011;6283;51.330;12.374;2022-12-18T09:00:41;10.77;;;6.10;;
12437;SDS011;6283;51.330;12.374;2022-12-18T09:03:11;7.77;;;5.43;;
12437;SDS011;6283;51.330;12.374;2022-12-18T09:05:37;11.73;;;5.87;;
12437;SDS011;6283;51.330;12.374;2022-12-18T09:08:03;8.67;;;5.47;;
12437;SDS011;6283;51.330;12.374;2022-12-18T09:10:28;9.60;;;5.57;;
12437;SDS011;6283;51.330;12.374;2022-12-18T09:12:54;10.07;;;5.83;;
12437;SDS011;6283;51.330;12.374;2022-12-18T09:15:21;9.67;;;5.93;;
12437;SDS011;6283;51.330;12.374;2022-12-18T09:17:47;10.70;;;5.93;;
12437;SDS011;6283;51.330;12.374;2022-12-18T09:20:13;8.27;;;5.60;;
12437;SDS011;6283;51.330;12.374;2022-12-18T09:22:38;9.07;;;5.13;;
12437;SDS011;6283;51.330;12.374;2022-12-18T09:25:04;9.00;;;5.13;;
12437;SDS011;6283;51.330;12.374;2022-12-18T09:27:32;7.33;;;5.27;;
12437;SDS011;6283;51.330;12.374;2022-12-18T09:29:58;8.60;;;5.17;;
12437;SDS011;6283;51.330;12.374;2022-12-18T09:32:24;8.30;;;4.83;;
12437;SDS011;6283;51.330;12.374;2022-12-18T09:34:50;9.57;;;6.20;;
12437;SDS011;6283;51.330;12.374;2022-12-18T09:37:15;8.03;;;5.20;;
12437;SDS011;6283;51.330;12.374;2022-12-18T09:39:41;7.53;;;5.20;;
12437;SDS011;6283;51.330;12.374;2022-12-18T09:42:06;8.97;;;4.97;;
12437;SDS011;6283;51.330;12.374;2022-12-18T09:44:43;8.33;;;4.90;;
12437;SDS011;6283;51.330;12.374;2022-12-18T09:47:18;6.37;;;4.57;;
12437;SDS011;6283;51.330;12.374;2022-12-18T09:49:45;8.77;;;4.73;;
12437;SDS011;6283;51.330;12.374;2022-12-18T09:52:16;7.97;;;5.20;;
12437;SDS011;6283;51.330;12.374;2022-12-18T09:57:30;6.40;;;4.37;;
12437;SDS011;6283;51.330;12.374;2022-12-18T10:00:03;6.23;;;4.20;;
12437;SDS011;6283;51.330;12.374;2022-12-18T10:02:43;7.03;;;4.63;;
12437;SDS011;6283;51.330;12.374;2022-12-18T10:05:11;7.83;;;4.20;;
12437;SDS011;6283;51.330;12.374;2022-12-18T10:08:00;7.47;;;4.40;;
12437;SDS011;6283;51.330;12.374;2022-12-18T10:10:41;6.57;;;3.93;;
12437;SDS011;6283;51.330;12.374;2022-12-18T10:16:18;7.33;;;4.50;;
12437;SDS011;6283;51.330;12.374;2022-12-18T10:27:14;7.00;;;4.30;;
12437;SDS011;6283;51.330;12.374;2022-12-18T10:29:45;8.80;;;5.47;;
12437;SDS011;6283;51.330;12.374;2022-12-18T10:32:18;7.97;;;4.60;;
12437;SDS011;6283;51.330;12.374;2022-12-18T10:34:49;7.70;;;4.27;;
12437;SDS011;6283;51.330;12.374;2022-12-18T10:37:18;8.03;;;4.43;;
12437;SDS011;6283;51.330;12.374;2022-12-18T10:40:06;6.50;;;4.80;;
12437;SDS011;6283;51.330;12.374;2022-12-18T10:42:39;19.40;;;5.90;;
12437;SDS011;6283;51.330;12.374;2022-12-18T10:47:35;11.30;;;5.00;;
12437;SDS011;6283;51.330;12.374;2022-12-18T10:50:01;6.83;;;4.97;;
12437;SDS011;6283;51.330;12.374;2022-12-18T10:52:28;7.77;;;4.83;;
12437;SDS011;6283;51.330;12.374;2022-12-18T10:54:55;8.73;;;5.50;;
12437;SDS011;6283;51.330;12.374;2022-12-18T10:59:57;11.50;;;5.53;;
12437;SDS011;6283;51.330;12.374;2022-12-18T11:02:35;7.87;;;5.43;;
12437;SDS011;6283;51.330;12.374;2022-12-18T11:05:02;10.93;;;6.20;;
12437;SDS011;6283;51.330;12.374;2022-12-18T11:07:48;9.63;;;5.93;;
12437;SDS011;6283;51.330;12.374;2022-12-18T11:10:16;7.23;;;5.63;;
12437;SDS011;6283;51.330;12.374;2022-12-18T11:12:43;10.43;;;7.00;;
12437;SDS011;6283;51.330;12.374;2022-12-18T11:15:19;17.40;;;8.40;;
12437;SDS011;6283;51.330;12.374;2022-12-18T11:17:55;18.23;;;7.27;;
12437;SDS011;6283;51.330;12.374;2022-12-18T11:20:23;13.73;;;8.43;;
12437;SDS011;6283;51.330;12.374;2022-12-18T11:22:58;13.60;;;8.03;;
12437;SDS011;6283;51.330;12.374;2022-12-18T11:25:51;20.57;;;8.30;;
12437;SDS011;6283;51.330;12.374;2022-12-18T11:28:33;14.23;;;7.77;;
12437;SDS011;6283;51.330;12.374;2022-12-18T11:36:31;15.73;;;8.63;;
12437;SDS011;6283;51.330;12.374;2022-12-18T11:39:03;11.77;;;8.03;;
12437;SDS011;6283;51.330;12.374;2022-12-18T11:41:41;12.17;;;7.17;;
12437;SDS011;6283;51.330;12.374;2022-12-18T11:44:50;21.67;;;9.37;;
12437;SDS011;6283;51.330;12.374;2022-12-18T11:50:02;11.53;;;6.00;;
12437;SDS011;6283;51.330;12.374;2022-12-18T11:52:33;13.70;;;6.40;;
12437;SDS011;6283;51.330;12.374;2022-12-18T11:55:16;9.07;;;5.43;;
12437;SDS011;6283;51.330;12.374;2022-12-18T12:00:28;10.87;;;5.97;;
12437;SDS011;6283;51.330;12.374;2022-12-18T12:11:49;8.67;;;5.33;;
12437;SDS011;6283;51.330;12.374;2022-12-18T12:19:57;15.67;;;6.33;;
12437;SDS011;6283;51.330;12.374;2022-12-18T12:25:21;9.50;;;6.37;;
12437;SDS011;6283;51.330;12.374;2022-12-18T12:34:04;12.43;;;7.47;;
12437;SDS011;6283;51.330;12.374;2022-12-18T12:36:54;11.63;;;7.10;;
12437;SDS011;6283;51.330;12.374;2022-12-18T12:39:49;12.07;;;6.97;;
12437;SDS011;6283;51.330;12.374;2022-12-18T12:42:34;12.13;;;7.50;;
12437;SDS011;6283;51.330;12.374;2022-12-18T12:45:30;14.30;;;9.10;;
12437;SDS011;6283;51.330;12.374;2022-12-18T12:48:01;15.30;;;8.27;;
12437;SDS011;6283;51.330;12.374;2022-12-18T12:50:29;12.30;;;7.47;;
12437;SDS011;6283;51.330;12.374;2022-12-18T12:52:59;14.77;;;8.13;;
12437;SDS011;6283;51.330;12.374;2022-12-18T12:55:30;11.67;;;7.10;;
12437;SDS011;6283;51.330;12.374;2022-12-18T13:00:22;12.17;;;7.03;;
12437;SDS011;6283;51.330;12.374;2022-12-18T13:05:33;12.40;;;7.90;;
12437;SDS011;6283;51.330;12.374;2022-12-18T13:08:11;15.13;;;8.10;;
12437;SDS011;6283;51.330;12.374;2022-12-18T13:10:54;15.67;;;8.03;;
12437;SDS011;6283;51.330;12.374;2022-12-18T13:13:55;17.67;;;8.07;;
12437;SDS011;6283;51.330;12.374;2022-12-18T13:16:24;14.47;;;7.30;;
12437;SDS011;6283;51.330;12.374;2022-12-18T13:18:52;11.17;;;6.67;;
12437;SDS011;6283;51.330;12.374;2022-12-18T13:21:32;11.57;;;7.17;;
12437;SDS011;6283;51.330;12.374;2022-12-18T13:26:54;12.30;;;7.33;;
12437;SDS011;6283;51.330;12.374;2022-12-18T13:32:22;13.17;;;7.60;;
12437;SDS011;6283;51.330;12.374;2022-12-18T13:35:02;11.43;;;7.20;;
12437;SDS011;6283;51.330;12.374;2022-12-18T13:37:52;11.83;;;6.87;;
12437;SDS011;6283;51.330;12.374;2022-12-18T13:43:14;16.13;;;7.67;;
12437;SDS011;6283;51.330;12.374;2022-12-18T13:48:21;11.47;;;7.20;;
12437;SDS011;6283;51.330;12.374;2022-12-18T13:51:08;18.63;;;8.17;;
12437;SDS011;6283;51.330;12.374;2022-12-18T13:53:41;14.53;;;8.30;;
12437;SDS011;6283;51.330;12.374;2022-12-18T13:56:18;14.17;;;7.63;;
12437;SDS011;6283;51.330;12.374;2022-12-18T14:01:44;14.27;;;8.27;;
12437;SDS011;6283;51.330;12.374;2022-12-18T14:04:22;18.33;;;8.37;;
12437;SDS011;6283;51.330;12.374;2022-12-18T14:06:49;15.63;;;7.37;;
12437;SDS011;6283;51.330;12.374;2022-12-18T14:09:19;13.77;;;7.83;;
12437;SDS011;6283;51.330;12.374;2022-12-18T14:11:50;15.27;;;8.67;;
12437;SDS011;6283;51.330;12.374;2022-12-18T14:14:17;14.93;;;8.70;;
12437;SDS011;6283;51.330;12.374;2022-12-18T14:16:44;15.57;;;8.60;;
12437;SDS011;6283;51.330;12.374;2022-12-18T14:19:13;15.47;;;8.87;;
12437;SDS011;6283;51.330;12.374;2022-12-18T14:21:45;17.67;;;8.73;;
12437;SDS011;6283;51.330;12.374;2022-12-18T14:26:46;15.43;;;9.10;;
12437;SDS011;6283;51.330;12.374;2022-12-18T14:29:26;15.63;;;9.13;;
12437;SDS011;6283;51.330;12.374;2022-12-18T14:34:32;14.67;;;8.20;;
12437;SDS011;6283;51.330;12.374;2022-12-18T14:36:58;17.03;;;9.83;;
12437;SDS011;6283;51.330;12.374;2022-12-18T14:39:24;16.63;;;9.77;;
12437;SDS011;6283;51.330;12.374;2022-12-18T14:41:50;18.97;;;10.23;;
12437;SDS011;6283;51.330;12.374;2022-12-18T14:44:16;16.37;;;10.10;;
12437;SDS011;6283;51.330;12.374;2022-12-18T14:46:43;29.87;;;13.80;;
12437;SDS011;6283;51.330;12.374;2022-12-18T14:52:03;18.43;;;10.80;;
12437;SDS011;6283;51.330;12.374;2022-12-18T14:54:31;18.70;;;9.80;;
12437;SDS011;6283;51.330;12.374;2022-12-18T14:57:00;18.20;;;10.77;;
12437;SDS011;6283;51.330;12.374;2022-12-18T14:59:29;18.77;;;9.87;;
12437;SDS011;6283;51.330;12.374;2022-12-18T15:02:04;20.37;;;11.23;;
12437;SDS011;6283;51.330;12.374;2022-12-18T15:05:00;19.47;;;10.57;;
12437;SDS011;6283;51.330;12.374;2022-12-18T15:07:38;18.40;;;10.53;;
12437;SDS011;6283;51.330;12.374;2022-12-18T15:10:17;20.63;;;11.67;;
12437;SDS011;6283;51.330;12.374;2022-12-18T15:17:58;19.67;;;11.47;;
12437;SDS011;6283;51.330;12.374;2022-12-18T15:20:24;22.13;;;12.17;;
12437;SDS011;6283;51.330;12.374;2022-12-18T15:22:50;20.63;;;12.23;;
12437;SDS011;6283;51.330;12.374;2022-12-18T15:25:36;22.50;;;12.20;;
12437;SDS011;6283;51.330;12.374;2022-12-18T15:28:02;22.53;;;11.67;;
12437;SDS011;6283;51.330;12.374;2022-12-18T15:30:28;24.70;;;12.87;;
12437;SDS011;6283;51.330;12.374;2022-12-18T15:35:57;23.20;;;11.83;;
12437;SDS011;6283;51.330;12.374;2022-12-18T15:38:23;19.70;;;10.53;;
12437;SDS011;6283;51.330;12.374;2022-12-18T15:40:49;18.63;;;11.30;;
12437;SDS011;6283;51.330;12.374;2022-12-18T15:43:14;19.07;;;11.00;;
12437;SDS011;6283;51.330;12.374;2022-12-18T15:45:59;22.53;;;11.63;;
12437;SDS011;6283;51.330;12.374;2022-12-18T15:48:25;21.67;;;11.57;;
12437;SDS011;6283;51.330;12.374;2022-12-18T15:50:51;20.73;;;11.37;;
12437;SDS011;6283;51.330;12.374;2022-12-18T15:53:18;18.43;;;10.83;;
12437;SDS011;6283;51.330;12.374;2022-12-18T15:55:44;22.30;;;12.20;;
12437;SDS011;6283;51.330;12.374;2022-12-18T15:58:28;22.00;;;10.87;;
12437;SDS011;6283;51.330;12.374;2022-12-18T16:00:54;19.00;;;10.93;;
12437;SDS011;6283;51.330;12.374;2022-12-18T16:03:23;18.83;;;11.83;;
12437;SDS011;6283;51.330;12.374;2022-12-18T16:05:49;20.53;;;11.37;;
12437;SDS011;6283;51.330;12.374;2022-12-18T16:08:14;21.93;;;11.17;;
12437;SDS011;6283;51.330;12.374;2022-12-18T16:10:40;21.57;;;11.70;;
12437;SDS011;6283;51.330;12.374;2022-12-18T16:13:06;21.43;;;12.00;;
12437;SDS011;6283;51.330;12.374;2022-12-18T16:15:35;20.80;;;11.93;;
12437;SDS011;6283;51.330;12.374;2022-12-18T16:18:01;22.00;;;12.00;;
12437;SDS011;6283;51.330;12.374;2022-12-18T16:20:26;18.67;;;10.83;;
12437;SDS011;6283;51.330;12.374;2022-12-18T16:22:52;19.80;;;12.20;;
12437;SDS011;6283;51.330;12.374;2022-12-18T16:25:21;25.23;;;13.33;;
12437;SDS011;6283;51.330;12.374;2022-12-18T16:27:50;21.57;;;11.73;;
12437;SDS011;6283;51.330;12.374;2022-12-18T16:30:17;33.70;;;12.77;;
12437;SDS011;6283;51.330;12.374;2022-12-18T16:32:45;21.87;;;11.20;;
12437;SDS011;6283;51.330;12.374;2022-12-18T16:35:11;26.10;;;12.77;;
12437;SDS011;6283;51.330;12.374;2022-12-18T16:37:38;18.90;;;10.83;;
12437;SDS011;6283;51.330;12.374;2022-12-18T16:40:05;19.37;;;11.03;;
12437;SDS011;6283;51.330;12.374;2022-12-18T16:42:34;19.93;;;11.37;;